Time;durP1;ratioP1;P1;durP2;ratioP2;P2;SDS_P1;SDS_P2;PMS_P1;PMS_P2;Temp;Humidity;BMP_temperature;BMP_pressure;BME280_temperature;BME280_humidity;BME280_pressure;Samples;Min_cycle;Max_cycle;Signal;HPM_P1;HPM_P2
2023/02/17 00:03:52;;;;;;;49.80;29.40;;;;;;;3.11;80.45;100207.42;218359;1257;138869;-68
2023/02/17 00:08:59;;;;;;;54.80;29.40;;;;;;;3.07;80.54;100198.03;217608;1256;139647;-68
2023/02/17 00:14:04;;;;;;;56.00;28.00;;;;;;;3.00;80.43;100196.95;219348;1256;139969;-69
2023/02/17 00:19:23;;;;;;;55.00;27.80;;;;;;;3.02;80.29;100192.65;217678;1257;140153;-68
2023/02/17 00:24:31;;;;;;;50.60;28.80;;;;;;;2.99;80.29;100193.45;217777;1259;139500;-68
2023/02/17 00:29:36;;;;;;;57.10;28.10;;;;;;;2.94;80.20;100194.30;220452;1256;139200;-70
2023/02/17 00:34:42;;;;;;;56.50;26.60;;;;;;;2.85;80.31;100191.39;218717;1256;140200;-68
2023/02/17 00:39:47;;;;;;;51.60;26.30;;;;;;;2.77;80.08;100185.35;217479;1255;140055;-72
2023/02/17 00:44:52;;;;;;;55.00;26.90;;;;;;;2.77;80.18;100183.21;218229;1256;139755;-69
2023/02/17 00:49:58;;;;;;;57.30;27.90;;;;;;;2.75;80.21;100184.33;217818;1255;139796;-68
2023/02/17 00:55:02;;;;;;;52.80;26.20;;;;;;;2.71;80.26;100190.08;219217;1256;140035;-70
2023/02/17 01:00:08;;;;;;;52.40;28.30;;;;;;;2.64;80.53;100188.55;218571;1256;139630;-70
2023/02/17 01:05:12;;;;;;;59.50;25.60;;;;;;;2.66;80.66;100191.67;217440;1260;139368;-71
2023/02/17 01:10:17;;;;;;;57.40;30.40;;;;;;;2.74;80.63;100192.36;217561;1257;140162;-69
2023/02/17 01:15:23;;;;;;;53.80;27.50;;;;;;;2.78;80.68;100189.42;217802;1257;140082;-71
2023/02/17 01:20:27;;;;;;;54.60;27.30;;;;;;;2.84;81.19;100180.47;218280;1259;140024;-73
2023/02/17 01:25:35;;;;;;;59.50;30.60;;;;;;;2.87;81.26;100172.06;217776;1260;140979;-76
2023/02/17 01:30:40;;;;;;;55.00;30.20;;;;;;;2.92;81.00;100165.55;217461;1257;139972;-74
2023/02/17 01:35:46;;;;;;;44.80;23.00;;;;;;;2.97;81.28;100163.50;218458;1257;140715;-75
2023/02/17 01:40:50;;;;;;;61.30;34.10;;;;;;;2.99;81.25;100157.02;218133;1257;139772;-74
2023/02/17 01:46:00;;;;;;;56.00;28.80;;;;;;;3.02;81.47;100162.06;217934;1257;140068;-76
2023/02/17 01:51:16;;;;;;;60.70;29.70;;;;;;;3.07;81.48;100159.25;218734;1260;140883;-85
2023/02/17 01:56:22;;;;;;;59.50;34.00;;;;;;;3.14;81.44;100145.96;217618;1257;141449;-70
2023/02/17 02:01:28;;;;;;;61.10;30.70;;;;;;;3.19;81.36;100139.73;217639;1257;140086;-73
2023/02/17 02:06:35;;;;;;;65.50;33.80;;;;;;;3.23;81.51;100127.55;220014;1257;139672;-73
2023/02/17 02:11:40;;;;;;;55.00;32.40;;;;;;;3.24;81.55;100119.19;217388;1257;139407;-73
2023/02/17 02:17:04;;;;;;;62.60;30.80;;;;;;;3.26;81.52;100103.86;218003;1259;139226;-72
2023/02/17 02:22:27;;;;;;;62.40;34.20;;;;;;;3.30;81.29;100092.13;220374;1259;141100;-73
2023/02/17 02:27:50;;;;;;;62.90;34.20;;;;;;;3.38;81.49;100080.73;220462;1257;140073;-73
2023/02/17 02:33:22;;;;;;;55.90;31.50;;;;;;;3.45;81.47;100067.16;218142;1256;141363;-75
2023/02/17 02:38:46;;;;;;;53.40;32.40;;;;;;;3.46;81.35;100063.66;217440;1257;140984;-74
2023/02/17 02:43:52;;;;;;;72.10;31.60;;;;;;;3.50;81.31;100066.92;217376;1257;140300;-73
2023/02/17 02:48:59;;;;;;;58.40;32.20;;;;;;;3.57;81.25;100070.80;217389;1257;140278;-73
2023/02/17 02:54:19;;;;;;;54.10;28.90;;;;;;;3.62;81.48;100073.40;217656;1260;139411;-75
2023/02/17 02:59:33;;;;;;;56.50;29.80;;;;;;;3.67;81.57;100064.09;217373;1259;140225;-75
2023/02/17 03:04:50;;;;;;;54.90;30.40;;;;;;;3.66;81.36;100067.94;217980;1257;139654;-78
2023/02/17 03:09:56;;;;;;;53.50;30.20;;;;;;;3.72;81.13;100068.48;217533;1259;140584;-76
2023/02/17 03:15:08;;;;;;;47.40;25.80;;;;;;;3.72;81.13;100064.71;217676;1260;139526;-72
2023/02/17 03:20:13;;;;;;;55.60;30.10;;;;;;;3.73;81.22;100064.45;217738;1256;139157;-79
2023/02/17 03:25:17;;;;;;;54.70;29.60;;;;;;;3.72;81.14;100067.10;217692;1259;139888;-71
2023/02/17 03:30:21;;;;;;;53.60;26.10;;;;;;;3.76;80.94;100071.45;217431;1256;141440;-71
2023/02/17 03:35:26;;;;;;;62.30;33.50;;;;;;;3.79;80.92;100071.70;217784;1256;140256;-72
2023/02/17 03:40:31;;;;;;;59.20;28.40;;;;;;;3.80;81.04;100068.77;217778;1257;139639;-71
2023/02/17 03:45:36;;;;;;;48.00;27.30;;;;;;;3.80;81.07;100058.94;217656;1256;139966;-72
2023/02/17 03:50:41;;;;;;;50.90;27.60;;;;;;;3.81;80.88;100055.67;217839;1256;140081;-68
2023/02/17 03:55:46;;;;;;;52.30;27.00;;;;;;;3.80;80.88;100047.02;217720;1256;140536;-70
2023/02/17 04:00:51;;;;;;;61.60;29.90;;;;;;;3.83;80.65;100051.40;217462;1259;140092;-76
2023/02/17 04:05:55;;;;;;;50.80;26.50;;;;;;;3.85;80.72;100048.14;217552;1257;140625;-74
2023/02/17 04:11:01;;;;;;;57.10;26.60;;;;;;;3.83;80.59;100043.85;217581;1257;140808;-73
2023/02/17 04:16:08;;;;;;;50.00;24.20;;;;;;;3.82;80.62;100039.70;218180;1256;140465;-76
2023/02/17 04:21:13;;;;;;;44.90;24.00;;;;;;;3.86;80.51;100039.72;217889;1257;139793;-76
2023/02/17 04:26:18;;;;;;;54.50;25.40;;;;;;;3.89;80.32;100032.37;217768;1257;140717;-75
2023/02/17 04:31:24;;;;;;;49.30;27.10;;;;;;;3.92;80.60;100022.35;218184;1257;140401;-77
2023/02/17 04:36:29;;;;;;;46.00;23.70;;;;;;;3.94;80.61;100015.10;218413;1256;140582;-79
2023/02/17 04:41:33;;;;;;;44.70;26.40;;;;;;;3.91;80.23;100017.17;218716;1257;141514;-80
2023/02/17 04:46:38;;;;;;;48.60;23.90;;;;;;;3.88;80.14;100013.66;217654;1257;140118;-66
2023/02/17 04:51:43;;;;;;;50.80;23.90;;;;;;;3.94;80.15;100008.38;217875;1260;140581;-67
2023/02/17 04:56:48;;;;;;;46.00;25.70;;;;;;;3.96;79.94;99999.21;217642;1257;139899;-69
2023/02/17 05:01:52;;;;;;;43.30;26.00;;;;;;;3.95;80.11;99994.27;218222;1256;139165;-68
2023/02/17 05:06:58;;;;;;;44.10;24.80;;;;;;;3.94;80.01;99996.64;217549;1256;138700;-74
2023/02/17 05:12:04;;;;;;;43.80;21.00;;;;;;;3.90;79.92;99978.59;218288;1256;139689;-69
2023/02/17 05:17:08;;;;;;;47.50;23.70;;;;;;;3.87;79.89;99975.17;217499;1256;140155;-68
2023/02/17 05:22:13;;;;;;;47.00;27.70;;;;;;;3.89;79.87;99970.50;218766;1260;140411;-67
2023/02/17 05:27:17;;;;;;;51.10;27.30;;;;;;;3.87;79.70;99971.41;217595;1257;141852;-67
2023/02/17 05:32:23;;;;;;;45.00;26.50;;;;;;;3.87;79.91;99977.29;217861;1259;139551;-69
2023/02/17 05:37:27;;;;;;;46.70;23.70;;;;;;;3.84;79.71;99982.32;217662;1259;138776;-68
2023/02/17 05:42:31;;;;;;;54.90;28.40;;;;;;;3.81;79.84;99978.84;217652;1259;140335;-68
2023/02/17 05:47:34;;;;;;;51.90;27.10;;;;;;;3.84;79.86;99977.05;218154;1257;140740;-68
2023/02/17 05:52:38;;;;;;;50.90;26.70;;;;;;;3.90;80.03;99966.46;217662;1257;140281;-69
2023/02/17 05:57:42;;;;;;;51.00;26.00;;;;;;;3.94;79.97;99957.94;218157;1256;139845;-69
2023/02/17 06:02:46;;;;;;;49.00;24.80;;;;;;;3.96;79.83;99952.02;220513;1256;140106;-71
2023/02/17 06:07:51;;;;;;;43.10;23.90;;;;;;;4.03;79.79;99956.80;219830;1260;139992;-71
2023/02/17 06:12:55;;;;;;;39.60;24.50;;;;;;;4.07;79.74;99963.02;220322;1256;139341;-71
2023/02/17 06:17:58;;;;;;;43.30;24.50;;;;;;;4.12;79.67;99960.67;220167;1256;139482;-70
2023/02/17 06:23:01;;;;;;;37.80;21.20;;;;;;;4.16;79.79;99951.21;218074;1256;139389;-70
2023/02/17 06:28:06;;;;;;;39.50;23.50;;;;;;;4.24;79.45;99945.58;219083;1256;139766;-73
2023/02/17 06:33:10;;;;;;;49.10;24.60;;;;;;;4.31;79.52;99944.20;217614;1261;140058;-76
2023/02/17 06:38:14;;;;;;;43.10;24.60;;;;;;;4.34;79.53;99944.98;217864;1257;140466;-71
2023/02/17 06:43:18;;;;;;;39.20;20.60;;;;;;;4.33;79.42;99939.48;217403;1260;139427;-72
2023/02/17 06:48:23;;;;;;;45.90;24.30;;;;;;;4.30;79.91;99941.93;218529;1262;140517;-71
2023/02/17 06:53:28;;;;;;;33.60;19.40;;;;;;;4.34;79.89;99937.45;217517;1259;139780;-72
2023/02/17 06:58:34;;;;;;;43.40;23.80;;;;;;;4.38;79.89;99934.70;217886;1257;139686;-72
2023/02/17 07:03:38;;;;;;;41.40;25.30;;;;;;;4.43;80.63;99930.89;217684;1261;140315;-67
2023/02/17 07:08:42;;;;;;;44.50;26.80;;;;;;;4.49;80.55;99930.53;217588;1257;140280;-68
2023/02/17 07:13:46;;;;;;;45.10;24.70;;;;;;;4.53;80.65;99926.05;217527;1259;138725;-70
2023/02/17 07:18:51;;;;;;;43.00;24.50;;;;;;;4.55;80.25;99920.80;217443;1260;140644;-70
2023/02/17 07:23:55;;;;;;;42.80;24.10;;;;;;;4.56;80.43;99920.45;217906;1257;140322;-67
2023/02/17 07:29:00;;;;;;;40.60;20.80;;;;;;;4.57;80.64;99921.15;218358;1256;138845;-66
2023/02/17 07:34:05;;;;;;;53.80;28.00;;;;;;;4.59;81.13;99919.89;217544;1261;139459;-66
2023/02/17 07:39:08;;;;;;;41.50;22.50;;;;;;;4.66;80.93;99915.67;217749;1260;140269;-66
2023/02/17 07:44:12;;;;;;;43.50;24.40;;;;;;;4.68;81.26;99907.20;217619;1260;141645;-66
2023/02/17 07:49:16;;;;;;;42.70;24.20;;;;;;;4.70;81.66;99908.64;217423;1260;141094;-67
2023/02/17 07:54:20;;;;;;;43.80;25.40;;;;;;;4.76;81.58;99915.10;217567;1260;140469;-70
2023/02/17 07:59:24;;;;;;;44.10;24.50;;;;;;;4.81;81.63;99919.36;217406;1257;139506;-66
2023/02/17 08:04:28;;;;;;;44.60;25.30;;;;;;;4.84;81.80;99918.54;217681;1257;142003;-65
2023/02/17 08:14:57;;;;;;;48.00;27.90;;;;;;;4.94;82.03;99905.05;217500;1260;139782;-67
2023/02/17 08:20:02;;;;;;;43.60;25.30;;;;;;;5.06;82.33;99906.35;218721;1260;140849;-67
2023/02/17 08:25:12;;;;;;;37.70;22.80;;;;;;;5.23;82.47;99900.34;217377;1260;151335;-67
2023/02/17 08:30:16;;;;;;;40.80;25.00;;;;;;;5.39;82.58;99888.90;218371;1260;140132;-67
2023/02/17 08:35:23;;;;;;;41.30;26.30;;;;;;;5.48;82.46;99885.48;219201;1260;140204;-67
2023/02/17 08:40:28;;;;;;;50.00;26.40;;;;;;;5.59;82.85;99891.61;218152;1260;452074;-66
2023/02/17 08:45:32;;;;;;;41.90;26.00;;;;;;;5.69;83.09;99895.02;217286;1260;140344;-67
2023/02/17 08:50:37;;;;;;;47.50;26.60;;;;;;;5.77;82.77;99900.23;217706;1257;140200;-70
2023/02/17 08:55:40;;;;;;;41.20;22.90;;;;;;;5.82;83.12;99903.16;217291;1257;139615;-69
2023/02/17 09:00:53;;;;;;;39.20;24.80;;;;;;;5.84;83.03;99897.34;217438;1257;142197;-67
2023/02/17 09:05:57;;;;;;;40.00;22.40;;;;;;;5.84;83.17;99890.61;217290;1259;142112;-67
2023/02/17 09:11:02;;;;;;;48.50;25.50;;;;;;;5.86;83.19;99884.89;218071;1260;140373;-69
2023/02/17 09:16:06;;;;;;;37.50;23.80;;;;;;;5.94;83.08;99880.91;217587;1257;140820;-68
2023/02/17 09:21:12;;;;;;;45.40;24.80;;;;;;;5.98;82.68;99873.84;217415;1260;140235;-70
2023/02/17 09:26:17;;;;;;;37.70;22.70;;;;;;;5.98;83.37;99865.37;217388;1257;150918;-67
2023/02/17 09:31:24;;;;;;;36.30;23.90;;;;;;;5.98;83.18;99857.35;218216;1256;140419;-69
2023/02/17 09:36:33;;;;;;;36.40;19.80;;;;;;;5.96;83.25;99853.11;217234;1256;140106;-67
2023/02/17 09:41:44;;;;;;;45.80;24.30;;;;;;;5.97;83.33;99850.14;217389;1257;140228;-71
2023/02/17 09:47:06;;;;;;;45.50;28.10;;;;;;;5.97;83.81;99850.92;217526;1261;140093;-70
2023/02/17 09:52:34;;;;;;;54.90;32.20;;;;;;;5.98;83.79;99843.15;217357;1260;140078;-67
2023/02/17 09:57:56;;;;;;;69.10;50.10;;;;;;;6.00;83.88;99832.33;218379;1257;140759;-67
2023/02/17 10:03:43;;;;;;;44.10;27.50;;;;;;;6.06;84.11;99817.88;220316;1257;140710;-70
2023/02/17 10:09:00;;;;;;;43.00;26.70;;;;;;;6.13;84.05;99809.59;220323;1257;140814;-70
2023/02/17 10:14:11;;;;;;;44.70;30.20;;;;;;;6.18;84.35;99801.12;220619;1257;139735;-69
2023/02/17 10:19:46;;;;;;;43.60;25.20;;;;;;;6.24;84.65;99787.85;219577;1257;139298;-69
2023/02/17 10:24:52;;;;;;;40.40;22.00;;;;;;;6.33;84.66;99785.85;217884;1257;140487;-66
2023/02/17 10:30:29;;;;;;;45.50;24.50;;;;;;;6.42;84.34;99782.89;217382;1257;232500;-69
2023/02/17 10:35:43;;;;;;;42.90;23.10;;;;;;;6.44;84.89;99777.06;217348;1257;140282;-68
2023/02/17 10:40:50;;;;;;;46.80;26.60;;;;;;;6.37;84.89;99773.02;217478;1257;140368;-72
2023/02/17 10:45:56;;;;;;;37.70;21.30;;;;;;;6.36;84.96;99766.59;217602;1257;140319;-70
2023/02/17 10:51:02;;;;;;;41.60;22.90;;;;;;;6.37;85.34;99751.07;217379;1257;140014;-69
2023/02/17 10:56:16;;;;;;;30.60;17.20;;;;;;;6.37;85.44;99740.84;217678;1257;139813;-70
2023/02/17 11:01:22;;;;;;;37.40;19.60;;;;;;;6.35;85.51;99728.34;217914;1258;140031;-73
2023/02/17 11:06:26;;;;;;;38.40;22.70;;;;;;;6.36;85.33;99715.88;217270;1257;140366;-70
2023/02/17 11:11:33;;;;;;;40.60;20.90;;;;;;;6.35;85.54;99701.90;217418;1257;139799;-71
2023/02/17 11:16:45;;;;;;;35.40;21.70;;;;;;;6.34;85.84;99693.72;217304;1258;140752;-70
2023/02/17 11:21:55;;;;;;;27.40;18.90;;;;;;;6.35;85.87;99683.83;218509;1257;140230;-68
2023/02/17 11:27:04;;;;;;;32.70;22.10;;;;;;;6.37;85.72;99679.46;218350;1260;140055;-69
2023/02/17 11:32:12;;;;;;;33.20;19.50;;;;;;;6.43;86.09;99670.10;217738;1257;140953;-69
2023/02/17 11:37:23;;;;;;;33.20;18.90;;;;;;;6.43;86.29;99662.52;217685;1256;139334;-70
2023/02/17 11:42:31;;;;;;;33.70;20.00;;;;;;;6.39;86.30;99652.45;217544;1257;142085;-69
2023/02/17 11:48:07;;;;;;;32.20;18.90;;;;;;;6.41;86.55;99640.62;217497;1257;141505;-69
2023/02/17 11:53:33;;;;;;;30.50;19.80;;;;;;;6.47;86.43;99622.08;219023;1257;140368;-70
2023/02/17 11:58:44;;;;;;;29.20;17.80;;;;;;;6.55;86.51;99602.91;220379;1256;140262;-68
2023/02/17 12:04:20;;;;;;;33.20;17.40;;;;;;;6.62;86.78;99584.50;220493;1256;139677;-70
2023/02/17 12:10:01;;;;;;;32.80;20.10;;;;;;;6.74;86.65;99567.64;220384;1256;140394;-70
2023/02/17 12:15:33;;;;;;;29.30;20.20;;;;;;;6.90;86.78;99555.42;217692;1257;140083;-69
2023/02/17 12:21:02;;;;;;;31.20;19.40;;;;;;;6.94;86.43;99553.77;218068;1257;139944;-69
2023/02/17 12:26:43;;;;;;;30.20;20.00;;;;;;;6.96;86.43;99542.54;217778;1260;139712;-68
2023/02/17 12:31:57;;;;;;;28.40;18.30;;;;;;;7.01;86.57;99529.73;219014;1256;140119;-68
2023/02/17 12:37:04;;;;;;;25.40;15.00;;;;;;;7.01;86.65;99520.04;218030;1256;140651;-69
2023/02/17 12:42:36;;;;;;;30.50;19.90;;;;;;;6.98;86.81;99507.17;217568;1257;139999;-70
2023/02/17 12:47:58;;;;;;;29.30;19.70;;;;;;;6.95;86.46;99497.53;217468;1257;140175;-69
2023/02/17 12:53:33;;;;;;;27.50;17.80;;;;;;;6.97;86.78;99486.30;217485;1256;140418;-68
2023/02/17 12:58:38;;;;;;;34.80;20.10;;;;;;;6.95;86.62;99480.94;217292;1257;139411;-69
2023/02/17 13:03:43;;;;;;;30.60;20.50;;;;;;;6.95;86.70;99470.05;217521;1260;140922;-68
2023/02/17 13:09:00;;;;;;;31.90;19.40;;;;;;;6.95;86.66;99471.23;217604;1257;140201;-68
2023/02/17 13:14:26;;;;;;;35.00;19.30;;;;;;;6.96;86.97;99457.17;217510;1260;139927;-69
2023/02/17 13:19:33;;;;;;;32.60;20.60;;;;;;;6.96;87.01;99454.47;217687;1257;233206;-69
2023/02/17 13:24:50;;;;;;;21.20;13.50;;;;;;;7.03;87.02;99446.48;217228;1257;139922;-69
2023/02/17 13:30:16;;;;;;;33.40;20.50;;;;;;;7.04;87.10;99436.62;217456;1257;140056;-68
2023/02/17 13:35:24;;;;;;;33.20;21.10;;;;;;;7.01;87.06;99426.53;218087;1256;139329;-69
2023/02/17 13:40:28;;;;;;;28.30;19.60;;;;;;;7.02;87.07;99417.02;219089;1256;141372;-68
2023/02/17 13:45:39;;;;;;;30.70;18.60;;;;;;;7.06;87.09;99414.31;218112;1256;139199;-69
2023/02/17 13:50:49;;;;;;;36.70;23.70;;;;;;;7.00;87.03;99406.78;217703;1257;139169;-68
2023/02/17 13:55:58;;;;;;;30.50;20.00;;;;;;;7.00;87.35;99397.98;218682;1256;142264;-69
2023/02/17 14:01:05;;;;;;;35.30;20.90;;;;;;;7.03;87.59;99386.98;217746;1257;139806;-69
2023/02/17 14:06:39;;;;;;;29.50;19.30;;;;;;;7.02;86.98;99370.42;217576;1257;139849;-69
2023/02/17 14:11:44;;;;;;;29.30;20.50;;;;;;;6.97;87.32;99364.98;218270;1256;140111;-70
2023/02/17 14:17:08;;;;;;;29.30;18.60;;;;;;;6.92;87.39;99351.37;217626;1256;140655;-70
2023/02/17 14:22:34;;;;;;;25.60;17.70;;;;;;;6.91;87.42;99345.23;217565;1257;141200;-70
2023/02/17 14:27:51;;;;;;;26.60;17.00;;;;;;;6.88;87.75;99325.34;217479;1257;139735;-69
2023/02/17 14:33:20;;;;;;;29.90;17.30;;;;;;;6.87;87.72;99315.60;217454;1256;140339;-70
2023/02/17 14:38:31;;;;;;;22.80;16.40;;;;;;;6.88;87.69;99295.01;217589;1256;140922;-69
2023/02/17 14:43:36;;;;;;;24.10;15.60;;;;;;;6.87;88.00;99288.90;217761;1256;139479;-69
2023/02/17 14:48:40;;;;;;;26.10;17.30;;;;;;;6.82;88.07;99281.86;218105;1256;139547;-69
2023/02/17 14:53:46;;;;;;;23.80;16.80;;;;;;;6.79;88.10;99268.80;217331;1259;141034;-71
2023/02/17 14:58:52;;;;;;;20.60;14.70;;;;;;;6.82;88.25;99255.90;217273;1256;141388;-69
2023/02/17 15:03:56;;;;;;;22.80;16.00;;;;;;;6.79;88.36;99253.69;217323;1257;139805;-68
2023/02/17 15:09:01;;;;;;;23.10;16.10;;;;;;;6.75;88.20;99239.23;217603;1257;140088;-69
2023/02/17 15:14:05;;;;;;;19.10;14.20;;;;;;;6.77;88.76;99227.87;217636;1256;140431;-69
2023/02/17 15:19:12;;;;;;;20.60;13.80;;;;;;;6.82;88.34;99217.10;217408;1257;141206;-69
2023/02/17 15:24:24;;;;;;;22.20;16.20;;;;;;;6.78;88.26;99199.37;217488;1256;140521;-68
2023/02/17 15:29:34;;;;;;;24.60;15.20;;;;;;;6.78;88.54;99184.25;217497;1256;140763;-70
2023/02/17 15:34:38;;;;;;;23.00;16.00;;;;;;;6.80;88.65;99171.23;217621;1256;141000;-69
2023/02/17 15:39:43;;;;;;;16.90;12.60;;;;;;;6.79;89.11;99148.26;218881;1256;140152;-70
2023/02/17 15:44:49;;;;;;;22.50;14.00;;;;;;;6.77;88.94;99151.55;218914;1256;140093;-68
2023/02/17 15:49:53;;;;;;;21.50;14.60;;;;;;;6.79;89.20;99135.70;220393;1256;142624;-72
2023/02/17 15:54:59;;;;;;;17.90;12.10;;;;;;;6.74;88.73;99123.29;220557;1256;140814;-70
2023/02/17 16:00:05;;;;;;;16.30;12.60;;;;;;;6.75;88.99;99108.84;220283;1256;139899;-71
2023/02/17 16:05:14;;;;;;;22.70;11.80;;;;;;;6.80;88.53;99098.07;220042;1256;140233;-70
2023/02/17 16:10:21;;;;;;;20.90;12.70;;;;;;;6.81;89.03;99096.18;218945;1256;141033;-70
2023/02/17 16:15:26;;;;;;;19.10;12.50;;;;;;;6.80;89.33;99097.22;219544;1256;141279;-70
2023/02/17 16:20:33;;;;;;;15.90;11.80;;;;;;;6.83;89.13;99101.70;217473;1257;140280;-70
2023/02/17 16:25:41;;;;;;;;;;;;;;;6.86;89.15;99105.81;218342;1256;140318;-70
2023/02/17 16:30:48;;;;;;;16.50;12.30;;;;;;;6.85;89.75;99102.33;218086;1257;148626;-69
2023/02/17 16:35:52;;;;;;;18.60;12.00;;;;;;;6.85;89.74;99093.90;217313;1257;140872;-69
2023/02/17 16:40:56;;;;;;;16.40;11.50;;;;;;;6.87;89.66;99087.34;217142;1260;140415;-71
2023/02/17 16:46:02;;;;;;;15.20;10.60;;;;;;;6.87;89.81;99080.82;217612;1256;139520;-70
2023/02/17 16:51:07;;;;;;;14.50;11.00;;;;;;;6.86;90.04;99073.16;217011;1260;140089;-69
2023/02/17 16:56:17;;;;;;;16.80;10.90;;;;;;;6.89;89.98;99075.83;217446;1257;140238;-71
2023/02/17 17:01:24;;;;;;;16.60;10.30;;;;;;;6.90;89.86;99058.45;218157;1257;140485;-69
2023/02/17 17:06:29;;;;;;;;;;;;;;;6.93;89.78;99060.73;217313;1256;142274;-73
2023/02/17 17:11:32;;;;;;;19.20;11.70;;;;;;;6.91;90.31;99051.25;217702;1257;126583;-71
2023/02/17 17:16:42;;;;;;;15.60;11.60;;;;;;;6.92;90.53;99048.06;217225;1257;141075;-71
2023/02/17 17:21:48;;;;;;;12.80;10.30;;;;;;;6.95;90.74;99039.58;217235;1256;142727;-71
2023/02/17 17:26:54;;;;;;;16.60;11.60;;;;;;;6.98;90.69;99028.31;217617;1256;141378;-71
2023/02/17 17:32:00;;;;;;;17.40;12.00;;;;;;;7.04;90.94;99022.45;217524;1256;140101;-70
2023/02/17 17:37:06;;;;;;;13.50;11.40;;;;;;;7.09;90.97;99014.30;217284;1256;141864;-70
2023/02/17 17:42:11;;;;;;;14.10;11.20;;;;;;;7.10;91.02;99022.39;219727;1258;141357;-71
2023/02/17 17:47:18;;;;;;;17.00;12.60;;;;;;;7.13;91.54;99012.33;217117;1256;140738;-72
2023/02/17 17:52:32;;;;;;;15.30;12.10;;;;;;;7.16;91.64;99002.49;217394;1259;143226;-72
2023/02/17 17:57:37;;;;;;;15.30;11.30;;;;;;;7.20;91.39;98990.77;217865;1256;140188;-72
2023/02/17 18:02:42;;;;;;;15.50;12.10;;;;;;;7.19;91.29;98993.34;217530;1256;139675;-73
2023/02/17 18:07:48;;;;;;;14.50;11.80;;;;;;;7.23;91.08;98984.80;217436;1257;140579;-69
2023/02/17 18:12:52;;;;;;;15.00;10.60;;;;;;;7.26;91.68;98980.50;217472;1256;140267;-70
2023/02/17 18:17:58;;;;;;;12.20;10.50;;;;;;;7.28;91.73;98974.64;218691;1256;139986;-69
2023/02/17 18:23:05;;;;;;;13.80;11.60;;;;;;;7.35;92.07;98976.04;217879;1256;141302;-71
2023/02/17 18:28:12;;;;;;;16.50;11.90;;;;;;;7.42;91.70;98964.85;217525;1259;237851;-71
2023/02/17 18:33:16;;;;;;;12.90;9.50;;;;;;;7.52;91.97;98987.86;217265;1257;140511;-72
2023/02/17 18:38:22;;;;;;;12.30;10.80;;;;;;;7.56;92.17;98988.68;217259;1256;139786;-71
2023/02/17 18:43:27;;;;;;;11.60;10.10;;;;;;;7.59;92.32;98984.21;218060;1256;140479;-72
2023/02/17 18:48:31;;;;;;;13.90;10.10;;;;;;;7.66;92.35;98976.59;217345;1256;142496;-71
2023/02/17 18:53:36;;;;;;;12.30;8.00;;;;;;;7.72;92.74;98979.91;217309;1260;140392;-70
2023/02/17 18:58:42;;;;;;;11.40;8.90;;;;;;;7.79;92.55;98976.05;217408;1257;140344;-70
2023/02/17 19:03:46;;;;;;;10.60;9.50;;;;;;;7.85;92.50;98971.95;217173;1257;141324;-72
2023/02/17 19:08:52;;;;;;;10.00;7.80;;;;;;;7.92;92.95;98982.48;218177;1256;140902;-70
2023/02/17 19:13:59;;;;;;;11.80;9.40;;;;;;;7.99;92.97;98978.30;217636;1256;140383;-71
2023/02/17 19:19:03;;;;;;;14.70;10.80;;;;;;;8.04;92.90;98975.90;218588;1256;142203;-71
2023/02/17 19:24:10;;;;;;;16.60;11.70;;;;;;;8.09;92.98;98967.67;218095;1257;140905;-72
2023/02/17 19:29:15;;;;;;;14.10;9.50;;;;;;;8.15;92.98;98972.83;217200;1257;140720;-72
2023/02/17 19:34:19;;;;;;;12.70;9.20;;;;;;;8.20;93.10;98970.11;217341;1259;142809;-72
2023/02/17 19:39:23;;;;;;;11.30;9.70;;;;;;;8.23;93.08;98968.27;217411;1256;139927;-72
2023/02/17 19:44:28;;;;;;;9.90;8.90;;;;;;;8.26;93.19;98958.14;217608;1257;140097;-72
2023/02/17 19:49:31;;;;;;;11.90;9.70;;;;;;;8.28;93.01;98968.17;217453;1257;140240;-73
2023/02/17 19:54:36;;;;;;;12.90;9.00;;;;;;;8.29;93.11;98964.64;217443;1257;140723;-72
2023/02/17 19:59:41;;;;;;;12.10;9.70;;;;;;;8.34;93.24;98961.88;218300;1257;140442;-72
2023/02/17 20:04:46;;;;;;;12.60;9.40;;;;;;;8.40;93.10;98965.30;217551;1257;140705;-73
2023/02/17 20:09:55;;;;;;;11.70;9.10;;;;;;;8.46;93.22;98963.70;217697;1259;140743;-73
2023/02/17 20:15:00;;;;;;;13.40;8.50;;;;;;;8.51;93.10;98946.89;217917;1259;141068;-72
2023/02/17 20:20:09;;;;;;;11.00;7.80;;;;;;;8.57;93.01;98934.70;217433;1257;141651;-72
2023/02/17 20:25:14;;;;;;;12.80;7.40;;;;;;;8.58;92.84;98943.17;218070;1256;140635;-73
2023/02/17 20:30:20;;;;;;;12.10;9.20;;;;;;;8.57;92.86;98939.91;217181;1256;140535;-71
2023/02/17 20:35:25;;;;;;;10.90;9.80;;;;;;;8.59;93.01;98940.73;217221;1259;139945;-73
2023/02/17 20:40:30;;;;;;;9.20;7.30;;;;;;;8.61;93.07;98939.02;217698;1256;285158;-72
2023/02/17 20:45:36;;;;;;;8.20;7.10;;;;;;;8.68;93.24;98936.90;217031;1256;139730;-75
2023/02/17 20:50:44;;;;;;;8.00;7.20;;;;;;;8.75;93.03;98921.88;217002;1261;249149;-74
2023/02/17 20:55:50;;;;;;;8.40;7.30;;;;;;;8.83;93.07;98919.45;217739;1258;140772;-75
2023/02/17 21:00:56;;;;;;;6.20;5.60;;;;;;;8.87;92.82;98921.89;218045;1257;141308;-72
2023/02/17 21:06:05;;;;;;;6.80;5.00;;;;;;;8.90;92.76;98918.52;218125;1258;142008;-71
2023/02/17 21:11:15;;;;;;;8.80;6.80;;;;;;;8.91;92.69;98896.74;216991;1261;140159;-72
2023/02/17 21:16:24;;;;;;;11.60;6.50;;;;;;;8.89;92.71;98895.02;219591;1256;140636;-69
2023/02/17 21:21:30;;;;;;;14.50;13.10;;;;;;;8.90;92.79;98886.58;220048;1256;140925;-72
2023/02/17 21:26:35;;;;;;;7.30;6.60;;;;;;;8.95;92.84;98895.69;219841;1256;140728;-68
2023/02/17 21:31:40;;;;;;;8.00;5.80;;;;;;;9.01;92.41;98955.21;220244;1256;140417;-68
2023/02/17 21:36:46;;;;;;;1.50;1.40;;;;;;;8.92;91.29;98957.85;219127;1259;140729;-68
2023/02/17 21:41:52;;;;;;;1.70;1.60;;;;;;;8.59;90.26;98957.55;217546;1257;140525;-71
2023/02/17 21:46:58;;;;;;;2.90;1.80;;;;;;;8.36;90.01;98969.09;217611;1261;139766;-70
2023/02/17 21:52:02;;;;;;;2.50;1.70;;;;;;;8.22;89.50;98970.67;217632;1256;140189;-69
2023/02/17 21:57:07;;;;;;;2.20;1.80;;;;;;;8.07;88.39;98979.27;217788;1257;139929;-73
2023/02/17 22:02:12;;;;;;;2.60;1.70;;;;;;;7.88;87.27;98990.20;218456;1256;143936;-72
2023/02/17 22:07:16;;;;;;;2.40;1.40;;;;;;;7.67;86.66;98998.53;217495;1260;140198;-69
2023/02/17 22:12:20;;;;;;;2.50;2.30;;;;;;;7.54;85.60;99005.58;217513;1256;139887;-71
2023/02/17 22:17:26;;;;;;;2.60;1.40;;;;;;;7.42;85.34;99000.48;218148;1257;142229;-69
2023/02/17 22:22:31;;;;;;;1.40;1.00;;;;;;;7.32;84.45;99000.33;217254;1255;139951;-71
2023/02/17 22:27:36;;;;;;;1.90;1.30;;;;;;;7.27;84.17;99006.15;217428;1259;140274;-70
2023/02/17 22:32:41;;;;;;;1.30;1.00;;;;;;;7.20;83.66;99009.85;217748;1255;139392;-69
2023/02/17 22:37:45;;;;;;;4.00;1.30;;;;;;;7.09;83.04;99008.80;218031;1256;142016;-71
2023/02/17 22:42:50;;;;;;;1.10;1.00;;;;;;;7.01;83.08;99009.31;217538;1259;140493;-68
2023/02/17 22:47:55;;;;;;;1.70;1.50;;;;;;;6.95;82.85;99003.92;217482;1255;140676;-70
2023/02/17 22:53:00;;;;;;;6.00;1.40;;;;;;;6.92;82.50;99005.80;217468;1260;139961;-71
2023/02/17 22:58:04;;;;;;;4.30;1.70;;;;;;;6.87;82.33;99016.87;217545;1257;139453;-69
2023/02/17 23:03:08;;;;;;;2.50;1.70;;;;;;;6.83;82.39;99018.52;217711;1256;140586;-71
2023/02/17 23:08:12;;;;;;;3.10;1.80;;;;;;;6.74;81.84;99022.54;217688;1256;138839;-68
2023/02/17 23:13:18;;;;;;;3.70;3.40;;;;;;;6.68;82.03;99020.11;218795;1257;139453;-69
2023/02/17 23:18:22;;;;;;;2.60;2.40;;;;;;;6.65;81.71;98996.36;218073;1257;140608;-68
2023/02/17 23:23:29;;;;;;;4.40;2.00;;;;;;;6.62;81.62;98996.73;220048;1256;139571;-71
2023/02/17 23:28:33;;;;;;;3.20;1.70;;;;;;;6.63;81.74;98998.75;220332;1257;139559;-69
2023/02/17 23:33:38;;;;;;;3.20;2.00;;;;;;;6.69;81.36;99009.50;220327;1257;139920;-70